Olathe, KS

6:56 AM CST on February 09, 2016 (GMT -0600)
Johnson County Executive | | Change Station
CLOSE
Current Station
Airport
Location: Olathe,
Elevation: 1096 ft
Nearby Weather Stations

Elev 1096 ft 38.85 °N, 94.74 °W | Updated 3 minutes ago

Partly Cloudy
Partly Cloudy
22 °F
Feels Like 8 °F
N
17
Wind Variable Wind from NNW
Gusts 25 mph

Today
High -- | Low -- °F
--% Chance of Precip.
Yesterday
High -- | Low -- °F
Precip. -- in
Pressure 30.14 in
Visibility 10.0 miles
Clouds Few 3300 ft
Windchill 8 °F
Dew Point 9 °F
Humidity 58%
Rainfall 0.00 in
Snow Depth Not available.
7:17 AM 5:49 PM
New Moon, 1% visible
METAR KOJC 091253Z 34015G22KT 10SM FEW033 M06/M13 A3010 RMK AO2 PK WND 33030/1208 SLP205 T10561128
Pressure 30.14 in
Visibility 10.0 miles
Clouds Few 3300 ft
Windchill 8 °F
Dew Point 9 °F
Humidity 58%
Rainfall 0.00 in
Snow Depth Not available.
7:17 AM 5:49 PM
New Moon, 1% visible
METAR KOJC 091253Z 34015G22KT 10SM FEW033 M06/M13 A3010 RMK AO2 PK WND 33030/1208 SLP205 T10561128

10-Day Weather Forecast

Almanac

Astronomy

Feb. 09, 2016 Rise Set
Actual Time
Civil Twilight
Nautical Twilight
Astronomical Twilight
Moon
Length of Visible Light
Length of Day
Tomorrow will be .
, % of the Moon is Illuminated

Today's Extremes

State Highs State Lows

Community

WunderPhotos

Upload Photos

1,891,589 photos uploaded!

WunderBlog® & News

Nearby

Air Quality

  Air Quality AQ Index Pollutant
Not available.

Snow Depth

Station Depth Elevation

Earthquake Activity

City Distance Mag. Time & Date
Minimum magnitude displayed is 2.5.

Coastal Water Temperatures

Place Temperature

Stations

Nearby Weather Stations

Station Location Temp. Windchill Dew Point Humidity Wind Precip. Elev Updated Type
                   

Watches & Warnings

There are currently no watches in effect.